sensor_id;sensor_type;location;lat;lon;timestamp;temperature;humidity
44047;DHT22;29713;-33.888;151.150;2023-06-22T00:00:15;12.70;99.90
44047;DHT22;29713;-33.888;151.150;2023-06-22T00:02:42;12.80;99.90
44047;DHT22;29713;-33.888;151.150;2023-06-22T00:05:10;12.80;99.90
44047;DHT22;29713;-33.888;151.150;2023-06-22T00:07:37;12.90;99.90
44047;DHT22;29713;-33.888;151.150;2023-06-22T00:10:05;13.00;99.90
44047;DHT22;29713;-33.888;151.150;2023-06-22T00:12:32;13.00;99.90
44047;DHT22;29713;-33.888;151.150;2023-06-22T00:15:00;13.10;99.90
44047;DHT22;29713;-33.888;151.150;2023-06-22T00:17:27;13.10;99.90
44047;DHT22;29713;-33.888;151.150;2023-06-22T00:19:54;13.30;99.90
44047;DHT22;29713;-33.888;151.150;2023-06-22T00:22:25;13.40;99.90
44047;DHT22;29713;-33.888;151.150;2023-06-22T00:24:56;13.50;99.90
44047;DHT22;29713;-33.888;151.150;2023-06-22T00:27:23;13.60;99.90
44047;DHT22;29713;-33.888;151.150;2023-06-22T00:29:50;13.70;99.90
44047;DHT22;29713;-33.888;151.150;2023-06-22T00:32:18;13.80;99.90
44047;DHT22;29713;-33.888;151.150;2023-06-22T00:34:45;13.90;99.90
44047;DHT22;29713;-33.888;151.150;2023-06-22T00:37:16;14.00;99.90
44047;DHT22;29713;-33.888;151.150;2023-06-22T00:39:43;14.10;99.90
44047;DHT22;29713;-33.888;151.150;2023-06-22T00:42:11;14.20;99.90
44047;DHT22;29713;-33.888;151.150;2023-06-22T00:44:38;14.40;99.90
44047;DHT22;29713;-33.888;151.150;2023-06-22T00:47:06;14.50;99.90
44047;DHT22;29713;-33.888;151.150;2023-06-22T00:49:33;14.40;99.90
44047;DHT22;29713;-33.888;151.150;2023-06-22T00:52:01;14.50;99.90
44047;DHT22;29713;-33.888;151.150;2023-06-22T00:54:29;14.60;99.90
44047;DHT22;29713;-33.888;151.150;2023-06-22T00:56:57;14.60;99.90
44047;DHT22;29713;-33.888;151.150;2023-06-22T00:59:25;14.60;99.90
44047;DHT22;29713;-33.888;151.150;2023-06-22T01:01:53;14.60;99.90
44047;DHT22;29713;-33.888;151.150;2023-06-22T01:04:24;14.70;99.90
44047;DHT22;29713;-33.888;151.150;2023-06-22T01:12:18;15.00;99.90
44047;DHT22;29713;-33.888;151.150;2023-06-22T01:15:00;15.00;99.90
44047;DHT22;29713;-33.888;151.150;2023-06-22T01:17:30;15.20;99.90
44047;DHT22;29713;-33.888;151.150;2023-06-22T01:19:58;15.40;99.90
44047;DHT22;29713;-33.888;151.150;2023-06-22T01:22:37;15.50;99.90
44047;DHT22;29713;-33.888;151.150;2023-06-22T01:25:33;15.70;99.90
44047;DHT22;29713;-33.888;151.150;2023-06-22T01:30:46;16.00;99.90
44047;DHT22;29713;-33.888;151.150;2023-06-22T01:33:16;15.90;99.90
44047;DHT22;29713;-33.888;151.150;2023-06-22T01:35:44;16.00;99.90
44047;DHT22;29713;-33.888;151.150;2023-06-22T01:38:11;16.10;99.90
44047;DHT22;29713;-33.888;151.150;2023-06-22T01:40:39;16.20;99.90
44047;DHT22;29713;-33.888;151.150;2023-06-22T01:43:07;16.20;99.90
44047;DHT22;29713;-33.888;151.150;2023-06-22T01:45:34;16.20;99.90
44047;DHT22;29713;-33.888;151.150;2023-06-22T01:48:02;16.20;99.90
44047;DHT22;29713;-33.888;151.150;2023-06-22T01:50:29;16.00;99.90
44047;DHT22;29713;-33.888;151.150;2023-06-22T01:52:57;15.90;99.90
44047;DHT22;29713;-33.888;151.150;2023-06-22T01:55:24;16.00;99.90
44047;DHT22;29713;-33.888;151.150;2023-06-22T01:57:51;16.00;99.90
44047;DHT22;29713;-33.888;151.150;2023-06-22T02:00:22;15.90;99.90
44047;DHT22;29713;-33.888;151.150;2023-06-22T02:03:10;15.90;99.90
44047;DHT22;29713;-33.888;151.150;2023-06-22T02:05:43;16.00;99.90
44047;DHT22;29713;-33.888;151.150;2023-06-22T02:08:20;15.90;99.90
44047;DHT22;29713;-33.888;151.150;2023-06-22T02:10:50;16.00;99.90
44047;DHT22;29713;-33.888;151.150;2023-06-22T02:13:18;16.10;99.90
44047;DHT22;29713;-33.888;151.150;2023-06-22T02:15:47;16.20;99.90
44047;DHT22;29713;-33.888;151.150;2023-06-22T02:18:14;16.20;99.90
44047;DHT22;29713;-33.888;151.150;2023-06-22T02:20:42;16.30;99.90
44047;DHT22;29713;-33.888;151.150;2023-06-22T02:23:10;16.50;99.90
44047;DHT22;29713;-33.888;151.150;2023-06-22T02:25:37;16.50;99.90
44047;DHT22;29713;-33.888;151.150;2023-06-22T02:28:05;16.60;99.90
44047;DHT22;29713;-33.888;151.150;2023-06-22T02:30:32;16.60;99.90
44047;DHT22;29713;-33.888;151.150;2023-06-22T02:32:59;16.80;99.90
44047;DHT22;29713;-33.888;151.150;2023-06-22T02:35:28;17.10;99.90
44047;DHT22;29713;-33.888;151.150;2023-06-22T02:37:59;17.20;99.90
44047;DHT22;29713;-33.888;151.150;2023-06-22T02:40:28;17.30;99.90
44047;DHT22;29713;-33.888;151.150;2023-06-22T02:42:56;17.40;99.90
44047;DHT22;29713;-33.888;151.150;2023-06-22T02:45:31;17.40;99.90
44047;DHT22;29713;-33.888;151.150;2023-06-22T02:47:58;17.40;99.90
44047;DHT22;29713;-33.888;151.150;2023-06-22T02:50:26;17.40;99.90
44047;DHT22;29713;-33.888;151.150;2023-06-22T02:52:53;17.40;99.90
44047;DHT22;29713;-33.888;151.150;2023-06-22T02:55:20;17.40;99.90
44047;DHT22;29713;-33.888;151.150;2023-06-22T02:57:48;17.50;99.90
44047;DHT22;29713;-33.888;151.150;2023-06-22T03:00:20;17.60;99.90
44047;DHT22;29713;-33.888;151.150;2023-06-22T03:02:48;17.70;99.90
44047;DHT22;29713;-33.888;151.150;2023-06-22T03:05:16;17.70;99.90
44047;DHT22;29713;-33.888;151.150;2023-06-22T03:07:45;17.70;99.90
44047;DHT22;29713;-33.888;151.150;2023-06-22T03:10:14;17.50;99.90
44047;DHT22;29713;-33.888;151.150;2023-06-22T03:12:42;17.40;99.90
44047;DHT22;29713;-33.888;151.150;2023-06-22T03:15:11;17.30;99.90
44047;DHT22;29713;-33.888;151.150;2023-06-22T03:17:39;17.20;99.90
44047;DHT22;29713;-33.888;151.150;2023-06-22T03:20:08;17.30;99.90
44047;DHT22;29713;-33.888;151.150;2023-06-22T03:22:38;17.20;99.90
44047;DHT22;29713;-33.888;151.150;2023-06-22T03:25:06;17.20;99.90
44047;DHT22;29713;-33.888;151.150;2023-06-22T03:27:37;17.10;99.90
44047;DHT22;29713;-33.888;151.150;2023-06-22T03:30:10;17.10;99.90
44047;DHT22;29713;-33.888;151.150;2023-06-22T03:32:39;17.00;99.90
44047;DHT22;29713;-33.888;151.150;2023-06-22T03:35:07;16.90;99.90
44047;DHT22;29713;-33.888;151.150;2023-06-22T03:37:35;16.90;99.90
44047;DHT22;29713;-33.888;151.150;2023-06-22T03:40:02;16.80;99.90
44047;DHT22;29713;-33.888;151.150;2023-06-22T03:42:34;16.70;99.90
44047;DHT22;29713;-33.888;151.150;2023-06-22T03:45:03;16.60;99.90
44047;DHT22;29713;-33.888;151.150;2023-06-22T03:47:31;16.60;99.90
44047;DHT22;29713;-33.888;151.150;2023-06-22T03:49:59;16.50;99.90
44047;DHT22;29713;-33.888;151.150;2023-06-22T03:52:26;16.50;99.90
44047;DHT22;29713;-33.888;151.150;2023-06-22T03:54:53;16.40;99.90
44047;DHT22;29713;-33.888;151.150;2023-06-22T03:57:21;16.40;99.90
44047;DHT22;29713;-33.888;151.150;2023-06-22T03:59:48;16.40;99.90
44047;DHT22;29713;-33.888;151.150;2023-06-22T04:02:16;16.40;99.90
44047;DHT22;29713;-33.888;151.150;2023-06-22T04:04:43;16.30;99.90
44047;DHT22;29713;-33.888;151.150;2023-06-22T04:07:10;16.30;99.90
44047;DHT22;29713;-33.888;151.150;2023-06-22T04:09:38;16.20;99.90
44047;DHT22;29713;-33.888;151.150;2023-06-22T04:12:05;16.20;99.90
44047;DHT22;29713;-33.888;151.150;2023-06-22T04:14:33;16.20;99.90
44047;DHT22;29713;-33.888;151.150;2023-06-22T04:17:00;16.20;99.90
44047;DHT22;29713;-33.888;151.150;2023-06-22T04:19:28;16.20;99.90
44047;DHT22;29713;-33.888;151.150;2023-06-22T04:21:55;16.20;99.90
44047;DHT22;29713;-33.888;151.150;2023-06-22T04:24:23;16.20;99.90
44047;DHT22;29713;-33.888;151.150;2023-06-22T04:26:50;16.20;99.90
44047;DHT22;29713;-33.888;151.150;2023-06-22T04:29:21;16.20;99.90
44047;DHT22;29713;-33.888;151.150;2023-06-22T04:31:56;16.20;99.90
44047;DHT22;29713;-33.888;151.150;2023-06-22T04:34:25;16.10;99.90
44047;DHT22;29713;-33.888;151.150;2023-06-22T04:36:55;16.10;99.90
44047;DHT22;29713;-33.888;151.150;2023-06-22T04:39:23;16.10;99.90
44047;DHT22;29713;-33.888;151.150;2023-06-22T04:41:51;16.10;99.90
44047;DHT22;29713;-33.888;151.150;2023-06-22T04:44:19;16.10;99.90
44047;DHT22;29713;-33.888;151.150;2023-06-22T04:46:57;16.20;99.90
44047;DHT22;29713;-33.888;151.150;2023-06-22T04:49:31;16.20;99.90
44047;DHT22;29713;-33.888;151.150;2023-06-22T04:52:07;16.20;99.90
44047;DHT22;29713;-33.888;151.150;2023-06-22T04:54:35;16.30;99.90
44047;DHT22;29713;-33.888;151.150;2023-06-22T04:57:05;16.30;99.90
44047;DHT22;29713;-33.888;151.150;2023-06-22T04:59:37;16.30;99.90
44047;DHT22;29713;-33.888;151.150;2023-06-22T05:02:06;16.30;99.90
44047;DHT22;29713;-33.888;151.150;2023-06-22T05:04:34;16.20;99.90
44047;DHT22;29713;-33.888;151.150;2023-06-22T05:07:07;16.20;99.90
44047;DHT22;29713;-33.888;151.150;2023-06-22T05:09:35;16.10;99.90
44047;DHT22;29713;-33.888;151.150;2023-06-22T05:12:03;16.00;99.90
44047;DHT22;29713;-33.888;151.150;2023-06-22T05:14:31;15.90;99.90
44047;DHT22;29713;-33.888;151.150;2023-06-22T05:16:58;15.90;99.90
44047;DHT22;29713;-33.888;151.150;2023-06-22T05:19:30;15.90;99.90
44047;DHT22;29713;-33.888;151.150;2023-06-22T05:22:00;15.80;99.90
44047;DHT22;29713;-33.888;151.150;2023-06-22T05:24:27;15.70;99.90
44047;DHT22;29713;-33.888;151.150;2023-06-22T05:26:54;15.70;99.90
44047;DHT22;29713;-33.888;151.150;2023-06-22T05:29:22;15.70;99.90
44047;DHT22;29713;-33.888;151.150;2023-06-22T05:31:49;15.60;99.90
44047;DHT22;29713;-33.888;151.150;2023-06-22T05:34:17;15.60;99.90
44047;DHT22;29713;-33.888;151.150;2023-06-22T05:36:44;15.50;99.90
44047;DHT22;29713;-33.888;151.150;2023-06-22T05:39:13;15.40;99.90
44047;DHT22;29713;-33.888;151.150;2023-06-22T05:41:41;15.30;99.90
44047;DHT22;29713;-33.888;151.150;2023-06-22T05:44:09;15.20;99.90
44047;DHT22;29713;-33.888;151.150;2023-06-22T05:46:39;15.20;99.90
44047;DHT22;29713;-33.888;151.150;2023-06-22T05:49:06;15.10;99.90
44047;DHT22;29713;-33.888;151.150;2023-06-22T05:51:35;15.10;99.90
44047;DHT22;29713;-33.888;151.150;2023-06-22T05:54:02;15.10;99.90
44047;DHT22;29713;-33.888;151.150;2023-06-22T05:56:29;15.00;99.90
44047;DHT22;29713;-33.888;151.150;2023-06-22T05:58:57;15.00;99.90
44047;DHT22;29713;-33.888;151.150;2023-06-22T06:01:31;15.00;99.90
44047;DHT22;29713;-33.888;151.150;2023-06-22T06:04:05;14.90;99.90
44047;DHT22;29713;-33.888;151.150;2023-06-22T06:06:36;14.80;99.90
44047;DHT22;29713;-33.888;151.150;2023-06-22T06:09:06;14.70;99.90
44047;DHT22;29713;-33.888;151.150;2023-06-22T06:11:34;14.60;99.90
44047;DHT22;29713;-33.888;151.150;2023-06-22T06:14:01;14.60;99.90
44047;DHT22;29713;-33.888;151.150;2023-06-22T06:16:31;14.40;99.90
44047;DHT22;29713;-33.888;151.150;2023-06-22T06:18:59;14.40;99.90
44047;DHT22;29713;-33.888;151.150;2023-06-22T06:21:26;14.40;99.90
44047;DHT22;29713;-33.888;151.150;2023-06-22T06:23:53;14.30;99.90
44047;DHT22;29713;-33.888;151.150;2023-06-22T06:26:21;14.20;99.90
44047;DHT22;29713;-33.888;151.150;2023-06-22T06:29:06;14.10;99.90
44047;DHT22;29713;-33.888;151.150;2023-06-22T06:31:33;14.10;99.90
44047;DHT22;29713;-33.888;151.150;2023-06-22T06:34:01;14.10;99.90
44047;DHT22;29713;-33.888;151.150;2023-06-22T06:36:28;14.00;99.90
44047;DHT22;29713;-33.888;151.150;2023-06-22T06:38:56;13.90;99.90
44047;DHT22;29713;-33.888;151.150;2023-06-22T06:41:26;13.90;99.90
44047;DHT22;29713;-33.888;151.150;2023-06-22T06:43:53;13.80;99.90
44047;DHT22;29713;-33.888;151.150;2023-06-22T06:46:21;13.80;99.90
44047;DHT22;29713;-33.888;151.150;2023-06-22T06:48:48;13.70;99.90
44047;DHT22;29713;-33.888;151.150;2023-06-22T06:51:15;13.60;99.90
44047;DHT22;29713;-33.888;151.150;2023-06-22T06:53:43;13.60;99.90
44047;DHT22;29713;-33.888;151.150;2023-06-22T06:56:10;13.60;99.90
44047;DHT22;29713;-33.888;151.150;2023-06-22T06:58:40;13.50;99.90
44047;DHT22;29713;-33.888;151.150;2023-06-22T07:01:09;13.50;99.90
44047;DHT22;29713;-33.888;151.150;2023-06-22T07:03:36;13.50;99.90
44047;DHT22;29713;-33.888;151.150;2023-06-22T07:06:03;13.50;99.90
44047;DHT22;29713;-33.888;151.150;2023-06-22T07:08:31;13.50;99.90
44047;DHT22;29713;-33.888;151.150;2023-06-22T07:10:58;13.50;99.90
44047;DHT22;29713;-33.888;151.150;2023-06-22T07:13:27;13.50;99.90
44047;DHT22;29713;-33.888;151.150;2023-06-22T07:15:55;13.50;99.90
44047;DHT22;29713;-33.888;151.150;2023-06-22T07:18:23;13.40;99.90
44047;DHT22;29713;-33.888;151.150;2023-06-22T07:20:50;13.40;99.90
44047;DHT22;29713;-33.888;151.150;2023-06-22T07:23:17;13.40;99.90
44047;DHT22;29713;-33.888;151.150;2023-06-22T07:25:45;13.30;99.90
44047;DHT22;29713;-33.888;151.150;2023-06-22T07:28:15;13.40;99.90
44047;DHT22;29713;-33.888;151.150;2023-06-22T07:30:42;13.30;99.90
44047;DHT22;29713;-33.888;151.150;2023-06-22T07:33:10;13.40;99.90
44047;DHT22;29713;-33.888;151.150;2023-06-22T07:35:37;13.40;99.90
44047;DHT22;29713;-33.888;151.150;2023-06-22T07:38:04;13.30;99.90
44047;DHT22;29713;-33.888;151.150;2023-06-22T07:40:32;13.30;99.90
44047;DHT22;29713;-33.888;151.150;2023-06-22T07:43:00;13.30;99.90
44047;DHT22;29713;-33.888;151.150;2023-06-22T07:45:27;13.30;99.90
44047;DHT22;29713;-33.888;151.150;2023-06-22T07:47:54;13.30;99.90
44047;DHT22;29713;-33.888;151.150;2023-06-22T07:50:22;13.30;99.90
44047;DHT22;29713;-33.888;151.150;2023-06-22T07:52:49;13.30;99.90
44047;DHT22;29713;-33.888;151.150;2023-06-22T07:55:19;13.30;99.90
44047;DHT22;29713;-33.888;151.150;2023-06-22T07:57:48;13.30;99.90
44047;DHT22;29713;-33.888;151.150;2023-06-22T08:00:18;13.30;99.90
44047;DHT22;29713;-33.888;151.150;2023-06-22T08:02:47;13.30;99.90
44047;DHT22;29713;-33.888;151.150;2023-06-22T08:05:15;13.30;99.90
44047;DHT22;29713;-33.888;151.150;2023-06-22T08:07:44;13.30;99.90
44047;DHT22;29713;-33.888;151.150;2023-06-22T08:10:12;13.30;99.90
44047;DHT22;29713;-33.888;151.150;2023-06-22T08:12:42;13.30;99.90
44047;DHT22;29713;-33.888;151.150;2023-06-22T08:15:10;13.30;99.90
44047;DHT22;29713;-33.888;151.150;2023-06-22T08:17:40;13.30;99.90
44047;DHT22;29713;-33.888;151.150;2023-06-22T08:20:08;13.20;99.90
44047;DHT22;29713;-33.888;151.150;2023-06-22T08:22:36;13.20;99.90
44047;DHT22;29713;-33.888;151.150;2023-06-22T08:25:05;13.20;99.90
44047;DHT22;29713;-33.888;151.150;2023-06-22T08:27:32;13.20;99.90
44047;DHT22;29713;-33.888;151.150;2023-06-22T08:30:00;13.20;99.90
44047;DHT22;29713;-33.888;151.150;2023-06-22T08:32:28;13.20;99.90
44047;DHT22;29713;-33.888;151.150;2023-06-22T08:34:56;13.20;99.90
44047;DHT22;29713;-33.888;151.150;2023-06-22T08:37:24;13.20;99.90
44047;DHT22;29713;-33.888;151.150;2023-06-22T08:40:03;13.20;99.90
44047;DHT22;29713;-33.888;151.150;2023-06-22T08:42:37;13.20;99.90
44047;DHT22;29713;-33.888;151.150;2023-06-22T08:45:05;13.20;99.90
44047;DHT22;29713;-33.888;151.150;2023-06-22T08:47:32;13.10;99.90
44047;DHT22;29713;-33.888;151.150;2023-06-22T08:50:00;13.10;99.90
44047;DHT22;29713;-33.888;151.150;2023-06-22T08:52:29;13.10;99.90
44047;DHT22;29713;-33.888;151.150;2023-06-22T08:54:57;13.10;99.90
44047;DHT22;29713;-33.888;151.150;2023-06-22T08:57:28;13.00;99.90
44047;DHT22;29713;-33.888;151.150;2023-06-22T08:59:57;13.00;99.90
44047;DHT22;29713;-33.888;151.150;2023-06-22T09:02:30;13.00;99.90
44047;DHT22;29713;-33.888;151.150;2023-06-22T09:04:58;12.90;99.90
44047;DHT22;29713;-33.888;151.150;2023-06-22T09:07:25;12.90;99.90
44047;DHT22;29713;-33.888;151.150;2023-06-22T09:09:53;13.00;99.90
44047;DHT22;29713;-33.888;151.150;2023-06-22T09:12:21;12.90;99.90
44047;DHT22;29713;-33.888;151.150;2023-06-22T09:14:52;12.90;99.90
44047;DHT22;29713;-33.888;151.150;2023-06-22T09:17:20;12.90;99.90
44047;DHT22;29713;-33.888;151.150;2023-06-22T09:19:47;12.90;99.90
44047;DHT22;29713;-33.888;151.150;2023-06-22T09:22:15;12.90;99.90
44047;DHT22;29713;-33.888;151.150;2023-06-22T09:24:42;12.90;99.90
44047;DHT22;29713;-33.888;151.150;2023-06-22T09:27:10;13.00;99.90
44047;DHT22;29713;-33.888;151.150;2023-06-22T09:29:37;13.00;99.90
44047;DHT22;29713;-33.888;151.150;2023-06-22T09:32:05;13.00;99.90
44047;DHT22;29713;-33.888;151.150;2023-06-22T09:34:32;13.00;99.90
44047;DHT22;29713;-33.888;151.150;2023-06-22T09:36:59;13.00;99.90
44047;DHT22;29713;-33.888;151.150;2023-06-22T09:39:30;13.00;99.90
44047;DHT22;29713;-33.888;151.150;2023-06-22T09:41:59;13.00;99.90
44047;DHT22;29713;-33.888;151.150;2023-06-22T09:44:29;13.00;99.90
44047;DHT22;29713;-33.888;151.150;2023-06-22T09:46:57;13.00;99.90
44047;DHT22;29713;-33.888;151.150;2023-06-22T09:49:24;13.00;99.90
44047;DHT22;29713;-33.888;151.150;2023-06-22T09:51:55;13.00;99.90
44047;DHT22;29713;-33.888;151.150;2023-06-22T09:54:22;12.90;99.90
44047;DHT22;29713;-33.888;151.150;2023-06-22T09:56:50;12.90;99.90
44047;DHT22;29713;-33.888;151.150;2023-06-22T09:59:17;12.90;99.90
44047;DHT22;29713;-33.888;151.150;2023-06-22T10:01:44;12.90;99.90
44047;DHT22;29713;-33.888;151.150;2023-06-22T10:04:11;12.80;99.90
44047;DHT22;29713;-33.888;151.150;2023-06-22T10:06:39;12.80;99.90
44047;DHT22;29713;-33.888;151.150;2023-06-22T10:09:08;12.90;99.90
44047;DHT22;29713;-33.888;151.150;2023-06-22T10:11:35;12.90;99.90
44047;DHT22;29713;-33.888;151.150;2023-06-22T10:14:03;12.90;99.90
44047;DHT22;29713;-33.888;151.150;2023-06-22T10:16:36;12.90;99.90
44047;DHT22;29713;-33.888;151.150;2023-06-22T10:19:03;12.90;99.90
44047;DHT22;29713;-33.888;151.150;2023-06-22T10:21:30;12.90;99.90
44047;DHT22;29713;-33.888;151.150;2023-06-22T10:23:58;12.90;99.90
44047;DHT22;29713;-33.888;151.150;2023-06-22T10:26:28;12.90;99.90
44047;DHT22;29713;-33.888;151.150;2023-06-22T10:28:55;12.90;99.90
44047;DHT22;29713;-33.888;151.150;2023-06-22T10:31:23;12.90;99.90
44047;DHT22;29713;-33.888;151.150;2023-06-22T10:33:50;12.90;99.90
44047;DHT22;29713;-33.888;151.150;2023-06-22T10:36:17;12.90;99.90
44047;DHT22;29713;-33.888;151.150;2023-06-22T10:38:45;12.90;99.90
44047;DHT22;29713;-33.888;151.150;2023-06-22T10:41:13;12.90;99.90
44047;DHT22;29713;-33.888;151.150;2023-06-22T10:43:41;12.90;99.90
44047;DHT22;29713;-33.888;151.150;2023-06-22T10:46:08;12.90;99.90
44047;DHT22;29713;-33.888;151.150;2023-06-22T10:48:36;12.90;99.90
44047;DHT22;29713;-33.888;151.150;2023-06-22T10:51:03;12.90;99.90
44047;DHT22;29713;-33.888;151.150;2023-06-22T10:53:31;12.90;99.90
44047;DHT22;29713;-33.888;151.150;2023-06-22T10:55:58;12.90;99.90
44047;DHT22;29713;-33.888;151.150;2023-06-22T10:58:26;12.90;99.90
44047;DHT22;29713;-33.888;151.150;2023-06-22T11:00:53;12.90;99.90
44047;DHT22;29713;-33.888;151.150;2023-06-22T11:03:21;12.90;99.90
44047;DHT22;29713;-33.888;151.150;2023-06-22T11:05:48;12.90;99.90
44047;DHT22;29713;-33.888;151.150;2023-06-22T11:08:15;12.90;99.90
44047;DHT22;29713;-33.888;151.150;2023-06-22T11:10:43;12.90;99.90
44047;DHT22;29713;-33.888;151.150;2023-06-22T11:13:11;12.90;99.90
44047;DHT22;29713;-33.888;151.150;2023-06-22T11:15:39;12.90;99.90
44047;DHT22;29713;-33.888;151.150;2023-06-22T11:18:06;12.90;99.90
44047;DHT22;29713;-33.888;151.150;2023-06-22T11:20:34;12.90;99.90
44047;DHT22;29713;-33.888;151.150;2023-06-22T11:23:06;12.90;99.90
44047;DHT22;29713;-33.888;151.150;2023-06-22T11:25:34;13.00;99.90
44047;DHT22;29713;-33.888;151.150;2023-06-22T11:28:05;13.00;99.90
44047;DHT22;29713;-33.888;151.150;2023-06-22T11:30:32;12.90;99.90
44047;DHT22;29713;-33.888;151.150;2023-06-22T11:33:01;12.90;99.90
44047;DHT22;29713;-33.888;151.150;2023-06-22T11:35:30;12.80;99.90
44047;DHT22;29713;-33.888;151.150;2023-06-22T11:37:57;12.80;99.90
44047;DHT22;29713;-33.888;151.150;2023-06-22T11:40:24;12.80;99.90
44047;DHT22;29713;-33.888;151.150;2023-06-22T11:42:52;12.70;99.90
44047;DHT22;29713;-33.888;151.150;2023-06-22T11:45:19;12.60;99.90
44047;DHT22;29713;-33.888;151.150;2023-06-22T11:47:47;12.60;99.90
44047;DHT22;29713;-33.888;151.150;2023-06-22T11:50:14;12.50;99.90
44047;DHT22;29713;-33.888;151.150;2023-06-22T11:52:42;12.50;99.90
44047;DHT22;29713;-33.888;151.150;2023-06-22T11:55:09;12.50;99.90
44047;DHT22;29713;-33.888;151.150;2023-06-22T11:57:38;12.50;99.90
44047;DHT22;29713;-33.888;151.150;2023-06-22T12:00:06;12.50;99.90
44047;DHT22;29713;-33.888;151.150;2023-06-22T12:02:45;12.60;99.90
44047;DHT22;29713;-33.888;151.150;2023-06-22T12:05:12;12.60;99.90
44047;DHT22;29713;-33.888;151.150;2023-06-22T12:07:39;12.50;99.90
44047;DHT22;29713;-33.888;151.150;2023-06-22T12:10:10;12.50;99.90
44047;DHT22;29713;-33.888;151.150;2023-06-22T12:12:38;12.50;99.90
44047;DHT22;29713;-33.888;151.150;2023-06-22T12:15:06;12.50;99.90
44047;DHT22;29713;-33.888;151.150;2023-06-22T12:17:34;12.50;99.90
44047;DHT22;29713;-33.888;151.150;2023-06-22T12:20:02;12.50;99.90
44047;DHT22;29713;-33.888;151.150;2023-06-22T12:22:33;12.50;99.90
44047;DHT22;29713;-33.888;151.150;2023-06-22T12:25:00;12.40;99.90
44047;DHT22;29713;-33.888;151.150;2023-06-22T12:27:28;12.50;99.90
44047;DHT22;29713;-33.888;151.150;2023-06-22T12:29:57;12.50;99.90
44047;DHT22;29713;-33.888;151.150;2023-06-22T12:32:24;12.50;99.90
44047;DHT22;29713;-33.888;151.150;2023-06-22T12:34:52;12.50;99.90
44047;DHT22;29713;-33.888;151.150;2023-06-22T12:37:20;12.60;99.90
44047;DHT22;29713;-33.888;151.150;2023-06-22T12:39:47;12.60;99.90
44047;DHT22;29713;-33.888;151.150;2023-06-22T12:42:16;12.60;99.90
44047;DHT22;29713;-33.888;151.150;2023-06-22T12:44:43;12.60;99.90
44047;DHT22;29713;-33.888;151.150;2023-06-22T12:47:11;12.60;99.90
44047;DHT22;29713;-33.888;151.150;2023-06-22T12:49:39;12.70;99.90
44047;DHT22;29713;-33.888;151.150;2023-06-22T12:52:10;12.70;99.90
44047;DHT22;29713;-33.888;151.150;2023-06-22T12:54:40;12.60;99.90
44047;DHT22;29713;-33.888;151.150;2023-06-22T12:57:11;12.70;99.90
44047;DHT22;29713;-33.888;151.150;2023-06-22T12:59:38;12.60;99.90
44047;DHT22;29713;-33.888;151.150;2023-06-22T13:02:06;12.60;99.90
44047;DHT22;29713;-33.888;151.150;2023-06-22T13:04:33;12.60;99.90
44047;DHT22;29713;-33.888;151.150;2023-06-22T13:07:01;12.60;99.90
44047;DHT22;29713;-33.888;151.150;2023-06-22T13:09:28;12.60;99.90
44047;DHT22;29713;-33.888;151.150;2023-06-22T13:11:55;12.60;99.90
44047;DHT22;29713;-33.888;151.150;2023-06-22T13:14:23;12.60;99.90
44047;DHT22;29713;-33.888;151.150;2023-06-22T13:16:50;12.60;99.90
44047;DHT22;29713;-33.888;151.150;2023-06-22T13:19:17;12.60;99.90
44047;DHT22;29713;-33.888;151.150;2023-06-22T13:21:45;12.60;99.90
44047;DHT22;29713;-33.888;151.150;2023-06-22T13:24:12;12.60;99.90
44047;DHT22;29713;-33.888;151.150;2023-06-22T13:26:40;12.60;99.90
44047;DHT22;29713;-33.888;151.150;2023-06-22T13:29:07;12.60;99.90
44047;DHT22;29713;-33.888;151.150;2023-06-22T13:31:34;12.60;99.90
44047;DHT22;29713;-33.888;151.150;2023-06-22T13:34:02;12.70;99.90
44047;DHT22;29713;-33.888;151.150;2023-06-22T13:36:29;12.70;99.90
44047;DHT22;29713;-33.888;151.150;2023-06-22T13:38:57;12.70;99.90
44047;DHT22;29713;-33.888;151.150;2023-06-22T13:41:24;12.60;99.90
44047;DHT22;29713;-33.888;151.150;2023-06-22T13:43:52;12.60;99.90
44047;DHT22;29713;-33.888;151.150;2023-06-22T13:46:19;12.60;99.90
44047;DHT22;29713;-33.888;151.150;2023-06-22T13:48:47;12.60;99.90
44047;DHT22;29713;-33.888;151.150;2023-06-22T13:51:14;12.60;99.90
44047;DHT22;29713;-33.888;151.150;2023-06-22T13:53:41;12.60;99.90
44047;DHT22;29713;-33.888;151.150;2023-06-22T13:56:09;12.70;99.90
44047;DHT22;29713;-33.888;151.150;2023-06-22T13:58:36;12.60;99.90
44047;DHT22;29713;-33.888;151.150;2023-06-22T14:01:04;12.60;99.90
44047;DHT22;29713;-33.888;151.150;2023-06-22T14:03:31;12.60;99.90
44047;DHT22;29713;-33.888;151.150;2023-06-22T14:05:58;12.60;99.90
44047;DHT22;29713;-33.888;151.150;2023-06-22T14:08:28;12.60;99.90
44047;DHT22;29713;-33.888;151.150;2023-06-22T14:10:56;12.50;99.90
44047;DHT22;29713;-33.888;151.150;2023-06-22T14:13:23;12.50;99.90
44047;DHT22;29713;-33.888;151.150;2023-06-22T14:15:51;12.50;99.90
44047;DHT22;29713;-33.888;151.150;2023-06-22T14:18:20;12.50;99.90
44047;DHT22;29713;-33.888;151.150;2023-06-22T14:20:49;12.50;99.90
44047;DHT22;29713;-33.888;151.150;2023-06-22T14:23:16;12.50;99.90
44047;DHT22;29713;-33.888;151.150;2023-06-22T14:25:43;12.50;99.90
44047;DHT22;29713;-33.888;151.150;2023-06-22T14:28:11;12.50;99.90
44047;DHT22;29713;-33.888;151.150;2023-06-22T14:30:38;12.40;99.90
44047;DHT22;29713;-33.888;151.150;2023-06-22T14:33:05;12.40;99.90
44047;DHT22;29713;-33.888;151.150;2023-06-22T14:35:33;12.40;99.90
44047;DHT22;29713;-33.888;151.150;2023-06-22T14:38:00;12.40;99.90
44047;DHT22;29713;-33.888;151.150;2023-06-22T14:40:27;12.40;99.90
44047;DHT22;29713;-33.888;151.150;2023-06-22T14:42:55;12.40;99.90
44047;DHT22;29713;-33.888;151.150;2023-06-22T14:45:23;12.40;99.90
44047;DHT22;29713;-33.888;151.150;2023-06-22T14:47:52;12.30;99.90
44047;DHT22;29713;-33.888;151.150;2023-06-22T14:50:19;12.30;99.90
44047;DHT22;29713;-33.888;151.150;2023-06-22T14:52:47;12.30;99.90
44047;DHT22;29713;-33.888;151.150;2023-06-22T14:55:14;12.30;99.90
44047;DHT22;29713;-33.888;151.150;2023-06-22T14:57:41;12.30;99.90
44047;DHT22;29713;-33.888;151.150;2023-06-22T15:00:09;12.30;99.90
44047;DHT22;29713;-33.888;151.150;2023-06-22T15:02:36;12.30;99.90